Tiempo atmosférico en la estación meteorológica de Fonfría, Teruel (1262 m.)



Fecha
DESCASC
Temp. máxima en grados centígrados (hora)
DESCASC
Temp. mínima en grados centígrados (hora)
DESCASC
Temp. media en grados centígrados
DESCASC
Racha de viento máxima en m/sg (hora)
DESCASC
Velocidad máxima media en intervalos de 10 minutos(hora)
DESCASC
Precipitaciones diarias en mm
DESCASC
Precipitaciones de 00:00 a 06:00 en mm
DESCASC
Precipitaciones de 06:00 a 12:00 en mm
DESCASC
Precipitaciones de 12:00 a 18:00 en mm
DESCASC
Precipitaciones de 18:00 a 24:00 en mm
DESCASC
20-02-2020 14.7 (13:30) 2.3 (08:00) 8.5 8.61 (04:00) 7.22 (03:50) 0 0 0 0 0
18-02-2020 8 (14:30) -1.2 (06:00) 3.4 8.89 (22:40) 5.83 (22:40) 0 0 0 0 0
17-02-2020 13.9 (14:20) 2.5 (23:59) 8.2 11.67 (14:50) 8.33 (02:10) 0 0 0 0 0
16-02-2020 18.2 (15:30) 6.9 (00:00) 12.6 11.94 (00:10) 8.89 (00:10) 0 0 0 0 0
15-02-2020 16 (16:40) 4.5 (06:50) 10.3 11.94 (23:59) 9.17 (23:59) 0 0 0 0 0
14-02-2020 14.1 (16:10) 3.6 (00:00) 8.9 10 (00:20) 6.94 (00:20) 0 0 0 0 0
13-02-2020 12.9 (13:40) 5.8 (00:00) 9.3 14.44 (09:40) 10 (09:30) 0 0 0 0 0
12-02-2020 12.6 (14:50) 4.8 (00:00) 8.7 9.72 (21:20) 7.5 (21:20) 0 0 0 0 0
11-02-2020 13.5 (16:20) 5.6 (00:00) 9.5 14.72 (03:10) 9.17 (01:50) 0 0 0 0 0
10-02-2020 12.9 (17:00) 5.3 (00:00) 9.1 15.56 (10:00) 10 (09:40) 0 0 0 0 0
09-02-2020 10.3 (14:10) 1.9 (00:00) 6.1 14.72 (22:30) 10.83 (22:30) 0 0 0 0 0
08-02-2020 9.8 (16:10) 3 (00:00) 6.4 9.72 (09:40) 6.39 (09:00) 0.4 0 0 0 0.4
07-02-2020 10.2 (13:50) 2.4 (00:00) 6.3 6.67 (00:30) 5.56 (00:30) 0 0 0 0 0
06-02-2020 12.6 (15:30) 1.8 (00:00) 7.2 13.61 (11:20) 10.56 (04:40) 0 0 0 0 0
05-02-2020 8.9 (16:20) -1.5 (-00:0) 3.7 13.89 (02:50) 9.72 (04:10) 0 0 0 0 0
04-02-2020 11.7 (15:10) 1.3 (00:00) 6.5 16.11 (23:50) 11.11 (23:50) 0 0 0 0 0
03-02-2020 19.3 (16:20) 6.1 (06:20) 12.7 10.56 (20:50) 6.94 (20:40) 0 0 0 0 0
02-02-2020 14.8 (15:30) 6.8 (00:00) 10.8 12.78 (11:40) 9.17 (11:40) 0 0 0 0 0
01-02-2020 12.8 (13:00) 6.8 (00:00) 9.8 15 (02:20) 10.83 (02:10) 0 0 0 0 0
31-01-2020 10.9 (14:20) 5.4 (00:00) 8.1 13.89 (23:59) 9.17 (02:30) 0 0 0 0 0
30-01-2020 8.7 (16:10) 5.2 (00:00) 6.9 16.11 (09:30) 11.67 (08:40) 0 0 0 0 0
29-01-2020 9.7 (15:40) 5.6 (00:00) 7.6 12.5 (13:30) 8.33 (20:50) 2 1.8 0.2 0 0
28-01-2020 7.4 (15:20) 3.8 (00:00) 5.6 16.67 (02:10) 10.56 (02:40) 1.8 0 0 0 1.8
27-01-2020 3.9 (14:20) -0.8 (-00:0) 1.6 20.28 (19:50) 15.28 (12:10) 0 0 0 0 0
26-01-2020 4.2 (16:20) 0.8 (00:00) 2.5 12.78 (10:10) 8.89 (10:10) 0.4 0.4 0 0 0
25-01-2020 4.7 (13:50) 2 (00:00) 3.3 8.89 (12:30) 6.67 (08:20) 3.8 0 1.4 1.4 1
24-01-2020 4.2 (14:20) 0.8 (00:00) 2.5 11.11 (04:40) 8.89 (04:40) 0 0 0 0 0
23-01-2020 5.2 (13:40) -0.2 (00:00) 2.5 10 (16:40) 7.22 (07:20) -- -- 0.2 0 0
22-01-2020 3.4 (12:50) -0.3 (00:00) 1.6 4.17 (17:40) 2.78 (08:30) -- -- -- -- --

Gráficas

Temp. máximas Temp. mínimas Temp. medias Precipitaciones Rachas de viento máximas Velocidades máximas media en intervalos de 10 minutos

Datos horarios

Fecha y hora oficial Temperatura (ºC) Velocidad del viento (km/h) Dirección del viento Racha (km/h) Dirección de racha Precipitación (mm) Presión (hPa) Tendencia (hPa) Humedad (%)
2020-02-20 23:00:00 6.5 3 Sur 8 Sur 0 -- -- 27
2020-02-20 22:00:00 7.7 4 Sur 6 Sur 0 -- -- 26
2020-02-20 21:00:00 7.7 2 Oeste 8 Oeste 0 -- -- 36
2020-02-20 20:00:00 7.7 6 Oeste 11 Noroeste 0 -- -- 43
2020-02-20 19:00:00 8.2 6 Noroeste 8 Oeste 0 -- -- 50
2020-02-20 18:00:00 10.3 7 Noroeste 17 Noroeste 0 -- -- 31
2020-02-20 17:00:00 12.9 14 Noroeste 21 Noroeste 0 -- -- 31
2020-02-20 16:00:00 13.2 14 Noroeste 22 Noroeste 0 -- -- 41
2020-02-20 15:00:00 13.5 12 Norte 27 Norte 0 -- -- 37
2020-02-20 14:00:00 14.2 12 Noroeste 24 Oeste 0 -- -- 31
2020-02-20 13:00:00 13.9 14 Noroeste 24 Noroeste 0 -- -- 29
2020-02-20 12:00:00 13.7 12 Oeste 28 Sudoeste 0 -- -- 32
2020-02-20 11:00:00 12.2 19 Sudoeste 27 Sudoeste 0 -- -- 35
2020-02-20 10:00:00 9.7 8 Oeste 18 Sudoeste 0 -- -- 41
2020-02-20 09:00:00 7.5 7 Este 14 Norte 0 -- -- 46
2020-02-20 08:00:00 2.3 10 Sudoeste 25 Oeste 0 -- -- 61
2020-02-20 07:00:00 3.7 17 Sudoeste 27 Sudoeste 0 -- -- 55
2020-02-20 06:00:00 2.4 19 Sudoeste 26 Sudoeste 0 -- -- 53
2020-02-20 05:00:00 4.4 4 Sudoeste 30 Sudoeste 0 -- -- 43
2020-02-20 04:00:00 4.6 25 Sudoeste 31 Sudoeste 0 -- -- 44
2020-02-20 03:00:00 3.5 16 Sudoeste 21 Sudoeste 0 -- -- 54
2020-02-20 02:00:00 4.6 7 Sudoeste 13 Sudoeste 0 -- -- 47
2020-02-20 01:00:00 3.7 5 Sudoeste 8 Sudoeste 0 -- -- 48
2020-02-20 00:00:00 5 5 Oeste 10 Oeste 0 -- -- 41
2020-02-19 23:00:00 5.5 4 Noroeste 11 Sudoeste 0 -- -- 41
2020-02-19 22:00:00 4.8 0 Calma 23 Sudoeste 0 -- -- 45
2020-02-19 21:00:00 4.1 19 Sudoeste 23 Sudoeste 0 -- -- 56
2020-02-19 20:00:00 4.6 3 Noroeste 20 Sudoeste 0 -- -- 53
2020-02-19 19:00:00 4.9 15 Oeste 19 Sudoeste 0 -- -- 52
2020-02-19 18:00:00 7.8 10 Oeste 14 Oeste 0 -- -- 45
2020-02-19 17:00:00 11.1 5 Noroeste 15 Norte 0 -- -- 34
2020-02-19 16:00:00 10.1 12 Norte 20 Norte 0 -- -- 36
2020-02-19 15:00:00 9.8 12 Norte 19 Noroeste 0 -- -- 30
2020-02-19 14:00:00 8.4 16 Norte 24 Norte 0 -- -- 46
2020-02-19 13:00:00 7.1 14 Noroeste 23 Noroeste 0 -- -- 48
2020-02-19 12:00:00 5.4 13 Noroeste 34 Noroeste 0 -- -- 58
2020-02-19 11:00:00 3.6 22 Noroeste 31 Noroeste 0 -- -- 72
2020-02-19 10:00:00 2.5 13 Noroeste 25 Noroeste 0 -- -- 77
2020-02-19 09:00:00 -0.1 8 Noroeste 13 Noroeste 0 -- -- 92
2020-02-19 08:00:00 -1.6 6 Noroeste 16 Oeste 0 -- -- 89
2020-02-19 07:00:00 -1.3 4 Noroeste 22 Sudoeste 0 -- -- 91
2020-02-19 06:00:00 -1.4 5 Sudoeste 15 Sudoeste 0 -- -- 89
2020-02-19 05:00:00 -1.4 10 Oeste 14 Oeste 0 -- -- 86
2020-02-19 04:00:00 -1.1 10 Noroeste 22 Noroeste 0 -- -- 87
2020-02-19 03:00:00 -0.5 12 Noroeste 25 Noroeste 0 -- -- 86
2020-02-19 02:00:00 -0.9 5 Este 19 Noroeste 0 -- -- 88
2020-02-19 01:00:00 -0.3 15 Noroeste 27 Noroeste 0 -- -- 89
2020-02-19 00:00:00 0.4 17 Noroeste 25 Noroeste 0 -- -- 87
2020-02-18 23:00:00 1.2 11 Noroeste 32 Norte 0 -- -- 83
2020-02-18 22:00:00 2 14 Norte 22 Norte 0 -- -- 80
2020-02-18 21:00:00 2.4 10 Norte 22 Norte 0 -- -- 81
2020-02-18 20:00:00 2.2 10 Noroeste 19 Norte 0 -- -- 82
2020-02-18 19:00:00 3.9 12 Norte 19 Nordeste 0 -- -- 77
2020-02-18 18:00:00 4.9 9 Nordeste 15 Nordeste 0 -- -- 73
2020-02-18 17:00:00 6.1 6 Nordeste 14 Este 0 -- -- 69
2020-02-18 16:00:00 7.2 8 Nordeste 12 Este 0 -- -- 66
2020-02-18 15:00:00 7.2 7 Nordeste 14 Noroeste 0 -- -- 67
2020-02-18 14:00:00 7 10 Norte 15 Noroeste 0 -- -- 70
2020-02-18 13:00:00 7.9 4 Nordeste 10 Nordeste 0 -- -- 65
2020-02-18 12:00:00 5.4 5 Nordeste 13 Noroeste 0 -- -- 69
2020-02-18 11:00:00 3.2 7 Norte 18 Noroeste 0 -- -- 77
2020-02-18 10:00:00 2.3 12 Noroeste 18 Noroeste 0 -- -- 87
2020-02-18 09:00:00 0.7 12 Noroeste 22 Norte 0 -- -- 93
2020-02-18 08:00:00 0.1 5 Noroeste 12 Noroeste 0 -- -- 97
2020-02-18 07:00:00 -0.4 9 Oeste 16 Oeste 0 -- -- 96
2020-02-18 06:00:00 -1.2 7 Noroeste 12 Noroeste 0 -- -- 95
2020-02-18 05:00:00 -0.3 6 Oeste 18 Noroeste 0 -- -- 96
2020-02-18 04:00:00 0.2 11 Noroeste 19 Noroeste 0 -- -- 96
2020-02-18 03:00:00 1 12 Norte 23 Noroeste 0 -- -- 97
2020-02-18 02:00:00 1.8 10 Norte 20 Noroeste 0 -- -- 97
2020-02-18 01:00:00 2.2 13 Norte 21 Norte 0 -- -- 98
2020-02-18 00:00:00 2.5 11 Norte 18 Norte 0 -- -- 99
2020-02-17 23:00:00 2.7 9 Norte 26 Norte 0 -- -- 99
2020-02-17 22:00:00 3 13 Norte 29 Norte 0 -- -- 99
2020-02-17 21:00:00 3.4 20 Norte 29 Norte 0 -- -- 99
2020-02-17 20:00:00 3.6 18 Norte 30 Norte 0 -- -- 99
2020-02-17 19:00:00 4.6 18 Norte 26 Norte 0 -- -- 98
2020-02-17 18:00:00 7.3 14 Norte 32 Noroeste 0 -- -- 93
2020-02-17 17:00:00 10.7 22 Noroeste 36 Noroeste 0 -- -- 79
2020-02-17 16:00:00 11.4 18 Noroeste 35 Noroeste 0 -- -- 78
2020-02-17 15:00:00 12.1 21 Noroeste 42 Oeste 0 -- -- 71
2020-02-17 14:00:00 12.9 19 Noroeste 34 Noroeste 0 -- -- 63
2020-02-17 13:00:00 13.5 16 Oeste 33 Oeste 0 -- -- 61
2020-02-17 12:00:00 11.8 18 Oeste 35 Oeste 0 -- -- 65
2020-02-17 11:00:00 11.4 15 Oeste 38 Oeste 0 -- -- 68
2020-02-17 10:00:00 9.2 19 Oeste 36 Oeste 0 -- -- 76
2020-02-17 09:00:00 8.3 22 Oeste 38 Sudoeste 0 -- -- 78
2020-02-17 08:00:00 6.6 9 Oeste 28 Oeste 0 -- -- 78
2020-02-17 07:00:00 6.6 23 Sudoeste 40 Sudoeste 0 -- -- 82
2020-02-17 06:00:00 7 30 Sudoeste 41 Sudoeste 0 -- -- 86
2020-02-17 05:00:00 7.2 22 Oeste 38 Sudoeste 0 -- -- 91
2020-02-17 04:00:00 7.8 24 Oeste 39 Sudoeste 0 -- -- 88
2020-02-17 03:00:00 8.1 23 Oeste 41 Oeste 0 -- -- 84
2020-02-17 02:00:00 7.9 28 Oeste 41 Oeste 0 -- -- 82
2020-02-17 01:00:00 8.1 17 Oeste 30 Oeste 0 -- -- 75
2020-02-17 00:00:00 7.5 14 Sudoeste 27 Sudoeste 0 -- -- 78
2020-02-16 23:00:00 8.3 22 Sudoeste 32 Sudoeste 0 -- -- 74
2020-02-16 22:00:00 8.9 21 Sudoeste 37 Sudoeste 0 -- -- 72
2020-02-16 21:00:00 9 18 Sudoeste 26 Sudoeste 0 -- -- 67
2020-02-16 20:00:00 10.1 9 Noroeste 29 Oeste 0 -- -- 58
2020-02-16 19:00:00 12.4 15 Oeste 31 Oeste 0 -- -- 48
2020-02-16 18:00:00 13.9 13 Oeste 27 Oeste 0 -- -- 40
2020-02-16 17:00:00 17.3 10 Noroeste 35 Oeste 0 -- -- 30
2020-02-16 16:00:00 18 16 Oeste 33 Oeste 0 -- -- 31
2020-02-16 15:00:00 18 14 Oeste 41 Sudoeste 0 -- -- 33
2020-02-16 14:00:00 16.9 24 Sudoeste 36 Sudoeste 0 -- -- 34
2020-02-16 13:00:00 16.6 18 Sudoeste 33 Oeste 0 -- -- 28
2020-02-16 12:00:00 16 18 Sudoeste 32 Sudoeste 0 -- -- 26
2020-02-16 11:00:00 14.9 22 Sudoeste 33 Sudoeste 0 -- -- 28
2020-02-16 10:00:00 13.4 13 Oeste 24 Oeste 0 -- -- 34
2020-02-16 09:00:00 9.8 8 Noroeste 31 Sudoeste 0 -- -- 51
2020-02-16 08:00:00 9 25 Sudoeste 40 Sudoeste 0 -- -- 45
2020-02-16 07:00:00 7.2 18 Sudoeste 22 Sudoeste 0 -- -- 45
2020-02-16 06:00:00 7.9 17 Sudoeste 32 Sudoeste 0 -- -- 42
2020-02-16 05:00:00 7.7 28 Sudoeste 36 Sudoeste 0 -- -- 46
2020-02-16 04:00:00 7.2 15 Sudoeste 24 Sudoeste 0 -- -- 60
2020-02-16 03:00:00 7.5 6 Noroeste 23 Sudoeste 0 -- -- 68
2020-02-16 02:00:00 7.4 16 Sudoeste 33 Oeste 0 -- -- 65
2020-02-16 01:00:00 8.5 22 Oeste 43 Oeste 0 -- -- 58
2020-02-16 00:00:00 9.1 33 Oeste 43 Oeste 0 -- -- 53
2020-02-15 23:00:00 8.9 22 Oeste 35 Oeste 0 -- -- 49
2020-02-15 22:00:00 9.2 13 Oeste 25 Oeste 0 -- -- 47
2020-02-15 21:00:00 9.2 9 Oeste 18 Noroeste 0 -- -- 49
2020-02-15 20:00:00 9.4 2 Oeste 12 Sudoeste 0 -- -- 49
2020-02-15 19:00:00 9.4 6 Oeste 13 Noroeste 0 -- -- 55
2020-02-15 18:00:00 12.7 8 Noroeste 17 Noroeste 0 -- -- 45
2020-02-15 17:00:00 14.9 8 Sudoeste 14 Sudoeste 0 -- -- 39
2020-02-15 16:00:00 14.3 10 Sudoeste 24 Oeste 0 -- -- 38
2020-02-15 15:00:00 15.6 14 Oeste 29 Oeste 0 -- -- 38
2020-02-15 14:00:00 15.9 11 Oeste 28 Noroeste 0 -- -- 33
2020-02-15 13:00:00 15 18 Oeste 31 Sudoeste 0 -- -- 33
2020-02-15 12:00:00 13.9 23 Sudoeste 32 Sudoeste 0 -- -- 41
2020-02-15 11:00:00 12.6 22 Sudoeste 36 Oeste 0 -- -- 46
2020-02-15 10:00:00 9.6 3 Nordeste 15 Sudoeste 0 -- -- 67
2020-02-15 09:00:00 8.6 3 Sudoeste 9 Sur 0 -- -- 66
2020-02-15 08:00:00 4.6 6 Sur 18 Sudoeste 0 -- -- 86
2020-02-15 07:00:00 5.1 0 Calma 6 Oeste 0 -- -- 87
2020-02-15 06:00:00 5.8 4 Sur 12 Noroeste 0 -- -- 81
2020-02-15 05:00:00 5.9 5 Oeste 12 Sudoeste 0 -- -- 82
2020-02-15 04:00:00 4.9 10 Sudoeste 22 Sudoeste 0 -- -- 88
2020-02-15 03:00:00 4.7 4 Sudoeste 15 Sudoeste 0 -- -- 87
2020-02-15 02:00:00 5.8 5 Oeste 11 Oeste 0 -- -- 82
2020-02-15 01:00:00 5.3 7 Sudoeste 16 Sudoeste 0 -- -- 85
2020-02-15 00:00:00 5.1 12 Sudoeste 15 Sudoeste 0 -- -- 85
2020-02-14 23:00:00 5 9 Sudoeste 13 Sudoeste 0 -- -- 88
2020-02-14 22:00:00 6 8 Sudoeste 15 Oeste 0 -- -- 85
2020-02-14 21:00:00 6.7 9 Sudoeste 14 Sudoeste 0 -- -- 83
2020-02-14 20:00:00 5.5 6 Sudoeste 9 Sudoeste 0 -- -- 88
2020-02-14 19:00:00 6.8 6 Sur 9 Sudeste 0 -- -- 82
2020-02-14 18:00:00 10 6 Este 13 Este 0 -- -- 70
2020-02-14 17:00:00 12.1 10 Nordeste 14 Este 0 -- -- 63
2020-02-14 16:00:00 13.7 4 Nordeste 23 Sudeste 0 -- -- 59
2020-02-14 15:00:00 13.6 4 Nordeste 12 Norte 0 -- -- 57
2020-02-14 14:00:00 11.4 7 Norte 16 Norte 0 -- -- 60
2020-02-14 13:00:00 9.8 10 Norte 18 Norte 0 -- -- 76
2020-02-14 12:00:00 8.7 12 Norte 18 Norte 0 -- -- 82
2020-02-14 11:00:00 8.2 7 Oeste 23 Noroeste 0 -- -- 83
2020-02-14 10:00:00 5.6 16 Noroeste 28 Noroeste 0 -- -- 94
2020-02-14 09:00:00 5.2 16 Noroeste 28 Noroeste 0 -- -- 95
2020-02-14 08:00:00 4.5 10 Noroeste 24 Oeste 0 -- -- 96
2020-02-14 07:00:00 4.5 9 Oeste 17 Oeste 0 -- -- 97
2020-02-14 06:00:00 4.6 12 Oeste 21 Noroeste 0 -- -- 96
2020-02-14 05:00:00 4.9 15 Noroeste 22 Noroeste 0 -- -- 95
2020-02-14 04:00:00 5 15 Noroeste 31 Noroeste 0 -- -- 93
2020-02-14 03:00:00 5.3 17 Noroeste 35 Noroeste 0 -- -- 94
2020-02-14 02:00:00 5.9 20 Noroeste 31 Noroeste 0 -- -- 90
2020-02-14 01:00:00 5.3 12 Noroeste 36 Noroeste 0 -- -- 90
2020-02-14 00:00:00 6.1 23 Noroeste 38 Oeste 0 -- -- 85
2020-02-13 23:00:00 6.3 15 Noroeste 31 Oeste 0 -- -- 84
2020-02-13 22:00:00 6.5 17 Noroeste 42 Oeste 0 -- -- 82
2020-02-13 21:00:00 7.5 26 Oeste 45 Noroeste 0 -- -- 75
2020-02-13 20:00:00 7.4 22 Noroeste 36 Noroeste 0 -- -- 79
2020-02-13 19:00:00 8.2 17 Noroeste 34 Noroeste 0 -- -- 76
2020-02-13 18:00:00 9.1 20 Noroeste 34 Noroeste 0 -- -- 81
2020-02-13 17:00:00 9.9 19 Oeste 39 Oeste 0 -- -- 75
2020-02-13 16:00:00 10.7 23 Noroeste 40 Noroeste 0 -- -- 71
2020-02-13 15:00:00 11.4 22 Noroeste 33 Noroeste 0 -- -- 73
2020-02-13 14:00:00 12.2 21 Noroeste 36 Noroeste 0 -- -- 67
2020-02-13 13:00:00 12.5 15 Noroeste 38 Oeste 0 -- -- 68
2020-02-13 12:00:00 10.3 21 Oeste 41 Oeste 0 -- -- 79
2020-02-13 11:00:00 8.2 30 Oeste 44 Oeste 0 -- -- 89
2020-02-13 10:00:00 6.3 31 Oeste 52 Oeste 0 -- -- 96
2020-02-13 09:00:00 6 31 Oeste 48 Oeste 0 -- -- 96
2020-02-13 08:00:00 5.8 30 Oeste 50 Oeste 0 -- -- 95
2020-02-13 07:00:00 6.1 30 Oeste 48 Oeste 0 -- -- 93
2020-02-13 06:00:00 6 30 Sudoeste 41 Oeste 0 -- -- 93
2020-02-13 05:00:00 6.4 27 Oeste 37 Oeste 0 -- -- 92
2020-02-13 04:00:00 6.5 25 Sudoeste 36 Sudoeste 0 -- -- 91
2020-02-13 03:00:00 6.4 20 Oeste 35 Sudoeste 0 -- -- 88
2020-02-13 02:00:00 6.9 21 Oeste 33 Sudoeste 0 -- -- 90
2020-02-13 01:00:00 6.9 4 Este 24 Sudoeste 0 -- -- 94
2020-02-13 00:00:00 7.4 7 Sudoeste 34 Sudoeste 0 -- -- 93
2020-02-12 23:00:00 7.8 23 Sudoeste 32 Sudoeste 0 -- -- 92
2020-02-12 22:00:00 8.1 27 Sudoeste 35 Sudoeste 0 -- -- 91
2020-02-12 21:00:00 8.1 25 Sudoeste 32 Sudoeste 0 -- -- 91
2020-02-12 20:00:00 8.3 13 Sur 19 Sur 0 -- -- 91
2020-02-12 19:00:00 7 7 Sudeste 13 Sudeste 0 -- -- 94
2020-02-12 18:00:00 8.2 8 Este 17 Sudeste 0 -- -- 89
2020-02-12 17:00:00 9.5 8 Sudeste 13 Sudeste 0 -- -- 83
2020-02-12 16:00:00 10.4 8 Este 15 Nordeste 0 -- -- 79
2020-02-12 15:00:00 12.3 8 Este 14 Este 0 -- -- 70
2020-02-12 14:00:00 11.2 9 Este 14 Sudeste 0 -- -- 76
2020-02-12 13:00:00 10.7 6 Sudeste 12 Este 0 -- -- 78
2020-02-12 12:00:00 9.2 4 Sudeste 12 Este 0 -- -- 85
2020-02-12 11:00:00 7.1 6 Sudeste 13 Sudeste 0 -- -- 95
2020-02-12 10:00:00 6.3 4 Sudeste 13 Sudeste 0 -- -- 99
2020-02-12 09:00:00 5 3 Sudeste 6 Sudeste 0 -- -- 99
2020-02-12 08:00:00 5 3 Sudeste 8 Este 0 -- -- 98
2020-02-12 07:00:00 5.1 6 Sudeste 13 Este 0 -- -- 96
2020-02-12 06:00:00 8 5 Sudoeste 16 Sudoeste 0 -- -- 86
2020-02-12 05:00:00 8 2 Oeste 16 Sudoeste 0 -- -- 85
2020-02-12 04:00:00 7.4 12 Sudoeste 18 Oeste 0 -- -- 91
2020-02-12 03:00:00 6.3 12 Sudoeste 21 Sudoeste 0 -- -- 94
2020-02-12 02:00:00 5.8 3 Norte 8 Sudoeste 0 -- -- 95
2020-02-12 01:00:00 5.9 4 Sudeste 7 Sudeste 0 -- -- 95
2020-02-12 00:00:00 6.1 2 Nordeste 5 Nordeste 0 -- -- 95
2020-02-11 23:00:00 6.2 3 Noroeste 10 Noroeste 0 -- -- 96
2020-02-11 22:00:00 6.4 8 Noroeste 14 Noroeste 0 -- -- 96
2020-02-11 21:00:00 8 6 Noroeste 18 Noroeste 0 -- -- 87
2020-02-11 20:00:00 9.9 13 Noroeste 21 Noroeste 0 -- -- 75
2020-02-11 19:00:00 10.3 13 Noroeste 18 Noroeste 0 -- -- 75
2020-02-11 18:00:00 10.9 8 Noroeste 24 Noroeste 0 -- -- 72
2020-02-11 17:00:00 12.9 15 Noroeste 33 Noroeste 0 -- -- 64
2020-02-11 16:00:00 13.1 15 Noroeste 31 Noroeste 0 -- -- 65
2020-02-11 15:00:00 12.6 20 Noroeste 31 Noroeste 0 -- -- 65
2020-02-11 14:00:00 12.1 20 Noroeste 32 Noroeste 0 -- -- 68
2020-02-11 13:00:00 11.9 21 Norte 30 Noroeste 0 -- -- 67
2020-02-11 12:00:00 13 18 Noroeste 31 Noroeste 0 -- -- 61
2020-02-11 11:00:00 11.1 15 Oeste 26 Norte 0 -- -- 71
2020-02-11 10:00:00 8.4 6 Norte 14 Norte 0 -- -- 90
2020-02-11 09:00:00 5.9 10 Norte 26 Noroeste 0 -- -- 96
2020-02-11 08:00:00 5.8 16 Norte 35 Noroeste 0 -- -- 95
2020-02-11 07:00:00 6.2 25 Noroeste 42 Noroeste 0 -- -- 94
2020-02-11 06:00:00 6.2 13 Noroeste 24 Noroeste 0 -- -- 90
2020-02-11 05:00:00 6.8 15 Noroeste 39 Oeste 0 -- -- 90
2020-02-11 04:00:00 7.5 22 Noroeste 53 Oeste 0 -- -- 87
2020-02-11 03:00:00 8.4 28 Oeste 51 Oeste 0 -- -- 79
2020-02-11 02:00:00 8.4 31 Oeste 51 Oeste 0 -- -- 81
2020-02-11 01:00:00 7.7 30 Noroeste 45 Noroeste 0 -- -- 90
2020-02-11 00:00:00 7.7 22 Noroeste 39 Oeste 0 -- -- 92
2020-02-10 23:00:00 8.2 15 Noroeste 39 Noroeste 0 -- -- 91
2020-02-10 22:00:00 8.1 18 Noroeste 32 Noroeste 0 -- -- 91
2020-02-10 21:00:00 7.9 24 Noroeste 43 Oeste 0 -- -- 90
2020-02-10 20:00:00 9.8 19 Noroeste 42 Oeste 0 -- -- 81
2020-02-10 19:00:00 9.4 11 Norte 37 Oeste 0 -- -- 84
2020-02-10 18:00:00 10.8 21 Oeste 34 Oeste 0 -- -- 78
2020-02-10 17:00:00 12.9 16 Oeste 40 Oeste 0 -- -- 70
2020-02-10 16:00:00 12.4 22 Oeste 45 Sudoeste 0 -- -- 70
2020-02-10 15:00:00 12.7 9 Sudoeste 49 Noroeste 0 -- -- 68
2020-02-10 14:00:00 11.7 20 Noroeste 46 Oeste 0 -- -- 73
2020-02-10 13:00:00 10.8 19 Noroeste 41 Noroeste 0 -- -- 80
2020-02-10 12:00:00 10 29 Noroeste 45 Noroeste 0 -- -- 81
2020-02-10 11:00:00 8.8 29 Noroeste 52 Oeste 0 -- -- 87
2020-02-10 10:00:00 7.5 34 Oeste 56 Oeste 0 -- -- 91
2020-02-10 09:00:00 6.8 27 Oeste 49 Oeste 0 -- -- 93
2020-02-10 08:00:00 6.2 8 Sur 37 Noroeste 0 -- -- 94
2020-02-10 07:00:00 6 30 Oeste 49 Sudoeste 0 -- -- 96
2020-02-10 06:00:00 6.1 24 Oeste 46 Oeste 0 -- -- 93
2020-02-10 05:00:00 6.1 29 Oeste 46 Oeste 0 -- -- 93
2020-02-10 04:00:00 6.2 15 Oeste 41 Oeste 0 -- -- 92
2020-02-10 03:00:00 5.8 25 Oeste 42 Oeste 0 -- -- 91
2020-02-10 02:00:00 5.7 28 Oeste 42 Oeste 0 -- -- 91
2020-02-10 01:00:00 5.5 31 Oeste 41 Oeste 0 -- -- 90
2020-02-10 00:00:00 5.3 26 Sudoeste 45 Oeste 0 -- -- 91
2020-02-09 23:00:00 5.4 35 Oeste 53 Oeste 0 -- -- 90
2020-02-09 22:00:00 5.2 18 Oeste 49 Oeste 0 -- -- 88
2020-02-09 21:00:00 5 26 Oeste 46 Oeste 0 -- -- 85
2020-02-09 20:00:00 5.2 28 Oeste 41 Oeste 0 -- -- 84
2020-02-09 19:00:00 5.6 17 Oeste 36 Oeste 0 -- -- 83
2020-02-09 18:00:00 6.4 25 Oeste 38 Oeste 0 -- -- 79
2020-02-09 17:00:00 8.2 7 Noroeste 31 Noroeste 0 -- -- 71
2020-02-09 16:00:00 9.5 14 Noroeste 30 Noroeste 0 -- -- 67
2020-02-09 15:00:00 10.1 10 Noroeste 27 Oeste 0 -- -- 63
2020-02-09 14:00:00 10.1 17 Noroeste 35 Oeste 0 -- -- 61
2020-02-09 13:00:00 8.7 18 Noroeste 30 Noroeste 0 -- -- 72
2020-02-09 12:00:00 8.7 5 Oeste 26 Sudoeste 0 -- -- 73
2020-02-09 11:00:00 6.4 9 Oeste 28 Sudoeste 0 -- -- 82
2020-02-09 10:00:00 4.7 19 Sudoeste 34 Oeste 0 -- -- 91
2020-02-09 09:00:00 3.4 13 Oeste 31 Oeste 0 -- -- 96
2020-02-09 08:00:00 2 14 Oeste 28 Oeste 0 -- -- 100
2020-02-09 07:00:00 2.3 8 Oeste 28 Sudoeste 0 -- -- 99
2020-02-09 06:00:00 2.1 23 Oeste 34 Oeste 0 -- -- 99
2020-02-09 05:00:00 3 18 Sudoeste 25 Oeste 0 -- -- 96
2020-02-09 04:00:00 3.5 15 Oeste 27 Sudoeste 0 -- -- 97
2020-02-09 03:00:00 4 18 Oeste 27 Oeste 0 -- -- 95
2020-02-09 02:00:00 4.1 9 Oeste 25 Sudoeste 0 -- -- 96
2020-02-09 01:00:00 4 18 Sudoeste 24 Sudoeste 0 -- -- 96
2020-02-09 00:00:00 5.3 9 Oeste 20 Oeste 0 -- -- 90
2020-02-08 23:00:00 4.6 0 Calma 18 Noroeste 0 -- -- 97
2020-02-08 22:00:00 5.5 10 Noroeste 17 Noroeste 0 -- -- 95
2020-02-08 21:00:00 5.5 7 Oeste 27 Noroeste 0.4 -- -- 92
2020-02-08 20:00:00 7.3 16 Oeste 25 Oeste 0 -- -- 79
2020-02-08 19:00:00 7.3 10 Oeste 15 Oeste 0 -- -- 76
2020-02-08 18:00:00 7.9 10 Sudoeste 21 Oeste 0 -- -- 74
2020-02-08 17:00:00 8.6 13 Oeste 21 Sudoeste 0 -- -- 70
2020-02-08 16:00:00 9.3 6 Oeste 21 Oeste 0 -- -- 66
2020-02-08 15:00:00 8.6 13 Oeste 23 Oeste 0 -- -- 72
2020-02-08 14:00:00 9.4 10 Oeste 19 Oeste 0 -- -- 73
2020-02-08 13:00:00 7.4 9 Norte 22 Noroeste 0 -- -- 84
2020-02-08 12:00:00 7.9 17 Noroeste 29 Noroeste 0 -- -- 80
2020-02-08 11:00:00 7.8 19 Oeste 30 Oeste 0 -- -- 78
2020-02-08 10:00:00 6.6 15 Oeste 35 Oeste 0 -- -- 83
2020-02-08 09:00:00 4.2 23 Oeste 32 Oeste 0 -- -- 95
2020-02-08 08:00:00 3.3 20 Sudoeste 30 Oeste 0 -- -- 95
2020-02-08 07:00:00 3 20 Sudoeste 30 Oeste 0 -- -- 95
2020-02-08 06:00:00 3.7 19 Oeste 28 Oeste 0 -- -- 94
2020-02-08 05:00:00 3.3 23 Sudoeste 29 Sudoeste 0 -- -- 97
2020-02-08 04:00:00 3.5 17 Sudoeste 23 Oeste 0 -- -- 96
2020-02-08 03:00:00 4.1 15 Sudoeste 20 Oeste 0 -- -- 92
2020-02-08 02:00:00 5 12 Oeste 19 Noroeste 0 -- -- 90
2020-02-08 01:00:00 5.4 12 Oeste 17 Noroeste 0 -- -- 84
2020-02-08 00:00:00 5.2 13 Noroeste 19 Noroeste 0 -- -- 84
2020-02-07 23:00:00 4.1 5 Noroeste 19 Oeste 0 -- -- 87
2020-02-07 22:00:00 4.4 13 Oeste 18 Oeste 0 -- -- 88
2020-02-07 21:00:00 4.9 2 Sur 7 Noroeste 0 -- -- 85
2020-02-07 20:00:00 5.2 5 Noroeste 9 Oeste 0 -- -- 81
2020-02-07 19:00:00 5.9 4 Oeste 13 Oeste 0 -- -- 78
2020-02-07 18:00:00 7.1 8 Oeste 17 Noroeste 0 -- -- 76
2020-02-07 17:00:00 9.3 10 Noroeste 20 Noroeste 0 -- -- 67
2020-02-07 16:00:00 9.4 12 Noroeste 21 Noroeste 0 -- -- 63
2020-02-07 15:00:00 9.6 14 Norte 19 Norte 0 -- -- 59
2020-02-07 14:00:00 10 7 Norte 13 Norte 0 -- -- 60
2020-02-07 13:00:00 9.2 9 Norte 17 Noroeste 0 -- -- 66
2020-02-07 12:00:00 7.2 12 Norte 15 Norte 0 -- -- 73
2020-02-07 11:00:00 8 5 Noroeste 12 Norte 0 -- -- 67
2020-02-07 10:00:00 5.6 0 Calma 5 Oeste 0 -- -- 80
2020-02-07 09:00:00 3.7 2 Oeste 4 Oeste 0 -- -- 83
2020-02-07 08:00:00 3.4 0 Calma 6 Noroeste 0 -- -- 80
2020-02-07 07:00:00 3.5 5 Noroeste 8 Noroeste 0 -- -- 76
2020-02-07 06:00:00 4 3 Noroeste 5 Oeste 0 -- -- 72
2020-02-07 05:00:00 4.1 2 Oeste 8 Noroeste 0 -- -- 71
2020-02-07 04:00:00 4.2 8 Oeste 12 Oeste 0 -- -- 72
2020-02-07 03:00:00 4.4 5 Noroeste 14 Oeste 0 -- -- 69
2020-02-07 02:00:00 5.1 9 Oeste 14 Oeste 0 -- -- 66
2020-02-07 01:00:00 5.4 9 Oeste 24 Sudoeste 0 -- -- 65
2020-02-07 00:00:00 4 3 Este 17 Sudoeste 0 -- -- 71
2020-02-06 23:00:00 4.6 7 Sudoeste 24 Sudoeste 0 -- -- 68
2020-02-06 22:00:00 5.6 20 Sudoeste 33 Sudoeste 0 -- -- 64
2020-02-06 21:00:00 5.2 6 Sudoeste 25 Sur 0 -- -- 63
2020-02-06 20:00:00 4.2 4 Sudeste 9 Sur 0 -- -- 72
2020-02-06 19:00:00 5.6 4 Sur 13 Sudeste 0 -- -- 65
2020-02-06 18:00:00 6.3 9 Sur 17 Sudeste 0 -- -- 60
2020-02-06 17:00:00 10.2 9 Este 18 Sur 0 -- -- 51
2020-02-06 16:00:00 12 11 Sur 27 Sudoeste 0 -- -- 30
2020-02-06 15:00:00 12.4 18 Sudoeste 36 Sudoeste 0 -- -- 26
2020-02-06 14:00:00 11.4 28 Sudoeste 45 Sudoeste 0 -- -- 25
2020-02-06 13:00:00 10.9 33 Sudoeste 45 Sudoeste 0 -- -- 28
2020-02-06 12:00:00 9.1 33 Sudoeste 49 Sudoeste 0 -- -- 34
2020-02-06 11:00:00 7.3 36 Sudoeste 46 Sudoeste 0 -- -- 36
2020-02-06 10:00:00 5.6 28 Sudoeste 40 Sudoeste 0 -- -- 42
2020-02-06 09:00:00 3.6 30 Sudoeste 41 Sudoeste 0 -- -- 49
2020-02-06 08:00:00 1.8 28 Sudoeste 36 Sudoeste 0 -- -- 58
2020-02-06 07:00:00 2.7 30 Sudoeste 43 Sudoeste 0 -- -- 55
2020-02-06 06:00:00 4.2 32 Sudoeste 44 Sudoeste 0 -- -- 40
2020-02-06 05:00:00 5 33 Sudoeste 49 Sur 0 -- -- 39
2020-02-06 04:00:00 4.8 29 Sudoeste 39 Sudoeste 0 -- -- 42
2020-02-06 03:00:00 5 28 Sur 35 Sur 0 -- -- 47
2020-02-06 02:00:00 2.2 12 Sudoeste 30 Sudoeste 0 -- -- 67
2020-02-06 01:00:00 3.6 20 Sudoeste 32 Sudoeste 0 -- -- 57
2020-02-06 00:00:00 4.3 28 Sudoeste 32 Sudoeste 0 -- -- 65
2020-02-05 23:00:00 4.2 27 Sudoeste 37 Sudoeste 0 -- -- 77
2020-02-05 22:00:00 4.5 32 Sudoeste 41 Sudoeste 0 -- -- 78
2020-02-05 21:00:00 4.7 23 Sudoeste 28 Sudoeste 0 -- -- 71
2020-02-05 20:00:00 2.8 2 Sudeste 14 Sudeste 0 -- -- 75
2020-02-05 19:00:00 3 10 Sudeste 15 Sudeste 0 -- -- 75
2020-02-05 18:00:00 5 7 Sudeste 10 Sudeste 0 -- -- 70
2020-02-05 17:00:00 8.2 7 Sudeste 13 Sudeste 0 -- -- 58
2020-02-05 16:00:00 8.6 6 Sudeste 14 Este 0 -- -- 56
2020-02-05 15:00:00 8.2 8 Este 15 Sudeste 0 -- -- 56
2020-02-05 14:00:00 8 10 Sudeste 18 Este 0 -- -- 58
2020-02-05 13:00:00 7.6 4 Sudeste 12 Sudeste 0 -- -- 53
2020-02-05 12:00:00 5.4 8 Este 10 Este 0 -- -- 62
2020-02-05 11:00:00 3.1 5 Noroeste 17 Noroeste 0 -- -- 69
2020-02-05 10:00:00 1.4 11 Noroeste 18 Noroeste 0 -- -- 79
2020-02-05 09:00:00 -0.2 10 Noroeste 20 Noroeste 0 -- -- 88
2020-02-05 08:00:00 -1.3 13 Norte 31 Noroeste 0 -- -- 91
2020-02-05 07:00:00 -1.1 19 Noroeste 36 Noroeste 0 -- -- 91
2020-02-05 06:00:00 -0.6 21 Norte 37 Norte 0 -- -- 90
2020-02-05 05:00:00 0 27 Norte 50 Noroeste 0 -- -- 90
2020-02-05 04:00:00 0.1 22 Norte 46 Noroeste 0 -- -- 87
2020-02-05 03:00:00 0.6 20 Norte 50 Noroeste 0 -- -- 81
2020-02-05 02:00:00 0.1 19 Noroeste 39 Noroeste 0 -- -- 85
2020-02-05 01:00:00 1 24 Norte 47 Noroeste 0 -- -- 81
2020-02-05 00:00:00 1.3 36 Noroeste 58 Noroeste 0 -- -- 81
2020-02-04 23:00:00 2.6 26 Noroeste 38 Noroeste 0 -- -- 72
2020-02-04 22:00:00 2.4 18 Noroeste 32 Norte 0 -- -- 88
2020-02-04 21:00:00 3.1 20 Noroeste 29 Noroeste 0 -- -- 87
2020-02-04 20:00:00 4.7 7 Noroeste 15 Noroeste 0 -- -- 87
2020-02-04 19:00:00 5.6 10 Noroeste 39 Norte 0 -- -- 92
2020-02-04 18:00:00 6.6 26 Norte 45 Norte 0 -- -- 91
2020-02-04 12:00:00 9.8 19 Noroeste 27 Norte 0 -- -- 79
2020-02-04 11:00:00 8.9 14 Noroeste 26 Noroeste 0 -- -- 81
2020-02-04 10:00:00 7.7 14 Norte 23 Noroeste 0 -- -- 82
2020-02-04 09:00:00 6.5 12 Norte 41 Noroeste 0 -- -- 86
2020-02-04 08:00:00 8.1 23 Noroeste 40 Noroeste 0 -- -- 83
2020-02-04 07:00:00 5.6 11 Noroeste 34 Noroeste 0 -- -- 88
2020-02-04 06:00:00 8 22 Noroeste 45 Noroeste 0 -- -- 80
2020-02-04 05:00:00 9.3 30 Noroeste 48 Noroeste 0 -- -- 73
2020-02-04 04:00:00 10.4 29 Noroeste 51 Noroeste 0 -- -- 66
2020-02-04 03:00:00 10.8 28 Noroeste 49 Oeste 0 -- -- 59
2020-02-04 02:00:00 11.3 28 Noroeste 44 Oeste 0 -- -- 55
2020-02-04 01:00:00 10.5 21 Oeste 35 Oeste 0 -- -- 58
2020-02-04 00:00:00 9.2 20 Oeste 29 Oeste 0 -- -- 66
2020-02-03 23:00:00 10.8 20 Oeste 29 Oeste 0 -- -- 58
2020-02-03 22:00:00 11.7 17 Oeste 32 Oeste 0 -- -- 57
2020-02-03 21:00:00 13 23 Oeste 38 Oeste 0 -- -- 52
2020-02-03 20:00:00 13.9 21 Oeste 28 Oeste 0 -- -- 42
2020-02-03 19:00:00 13.6 14 Oeste 20 Oeste 0 -- -- 51
2020-02-03 18:00:00 14.9 5 Oeste 17 Noroeste 0 -- -- 48
2020-02-03 17:00:00 18.5 8 Noroeste 17 Oeste 0 -- -- 41
2020-02-03 16:00:00 18.6 8 Oeste 24 Oeste 0 -- -- 40
2020-02-03 15:00:00 19.1 12 Sudoeste 20 Sudoeste 0 -- -- 43
2020-02-03 14:00:00 18.6 7 Sudoeste 14 Sur 0 -- -- 41
2020-02-03 13:00:00 17.7 8 Sudoeste 13 Oeste 0 -- -- 45
2020-02-03 12:00:00 14.4 3 Nordeste 9 Norte 0 -- -- 64
2020-02-03 11:00:00 11.9 3 Norte 5 Norte 0 -- -- 82
2020-02-03 10:00:00 10.1 3 Noroeste 8 Noroeste 0 -- -- 87
2020-02-03 09:00:00 8.3 4 Oeste 9 Oeste 0 -- -- 73
2020-02-03 08:00:00 7.6 2 Noroeste 6 Noroeste 0 -- -- 97
2020-02-03 07:00:00 6.6 4 Oeste 10 Noroeste 0 -- -- 99
2020-02-03 06:00:00 6.9 4 Noroeste 8 Norte 0 -- -- 99
2020-02-03 05:00:00 6.6 8 Norte 18 Noroeste 0 -- -- 98
2020-02-03 04:00:00 8.8 14 Noroeste 29 Noroeste 0 -- -- 93
2020-02-03 03:00:00 9.1 19 Noroeste 28 Noroeste 0 -- -- 93
2020-02-03 02:00:00 8 3 Sudoeste 21 Noroeste 0 -- -- 96
2020-02-03 01:00:00 8.4 15 Noroeste 33 Noroeste 0 -- -- 92
2020-02-03 00:00:00 10.7 19 Noroeste 36 Oeste 0 -- -- 78
2020-02-02 23:00:00 10.9 18 Noroeste 35 Noroeste 0 -- -- 82
2020-02-02 22:00:00 11.5 23 Noroeste 46 Noroeste 0 -- -- 78
2020-02-02 21:00:00 11.5 25 Oeste 43 Oeste 0 -- -- 77
2020-02-02 20:00:00 11.4 22 Oeste 33 Oeste 0 -- -- 79
2020-02-02 19:00:00 9.5 6 Oeste 21 Oeste 0 -- -- 85
2020-02-02 18:00:00 12.1 10 Oeste 26 Oeste 0 -- -- 73
2020-02-02 17:00:00 14.2 13 Oeste 28 Oeste 0 -- -- 63
2020-02-02 16:00:00 13.8 15 Noroeste 27 Norte 0 -- -- 67
2020-02-02 15:00:00 13.8 18 Norte 27 Norte 0 -- -- 68
2020-02-02 14:00:00 12.5 13 Oeste 32 Oeste 0 -- -- 77
2020-02-02 13:00:00 11.8 16 Oeste 37 Oeste 0 -- -- 80
2020-02-02 12:00:00 10.3 18 Oeste 46 Oeste 0 -- -- 85
2020-02-02 11:00:00 9.3 22 Oeste 39 Noroeste 0 -- -- 87
2020-02-02 10:00:00 8.8 13 Noroeste 31 Oeste 0 -- -- 88
2020-02-02 09:00:00 8.1 12 Oeste 27 Oeste 0 -- -- 93
2020-02-02 08:00:00 7.6 16 Oeste 40 Oeste 0 -- -- 92
2020-02-02 07:00:00 7.1 18 Oeste 32 Oeste 0 -- -- 97
2020-02-02 06:00:00 7 19 Oeste 38 Oeste 0 -- -- 98
2020-02-02 05:00:00 7 18 Sudoeste 31 Oeste 0 -- -- 98
2020-02-02 04:00:00 7.6 22 Sudoeste 33 Oeste 0 -- -- 97
2020-02-02 03:00:00 7.8 23 Oeste 36 Oeste 0 -- -- 96
2020-02-02 02:00:00 7.9 19 Oeste 36 Oeste 0 -- -- 97
2020-02-02 01:00:00 8.2 19 Oeste 36 Oeste 0 -- -- 93
2020-02-02 00:00:00 8.6 26 Oeste 36 Oeste 0 -- -- 94
2020-02-01 23:00:00 8.8 19 Oeste 30 Oeste 0 -- -- 94
2020-02-01 22:00:00 8.9 17 Oeste 32 Sudoeste 0 -- -- 92
2020-02-01 21:00:00 9.1 23 Oeste 37 Oeste 0 -- -- 89
2020-02-01 20:00:00 9.8 18 Oeste 35 Noroeste 0 -- -- 85
2020-02-01 19:00:00 10.2 24 Noroeste 39 Noroeste 0 -- -- 82
2020-02-01 18:00:00 10.4 23 Noroeste 36 Oeste 0 -- -- 81
2020-02-01 17:00:00 11.4 22 Noroeste 36 Noroeste 0 -- -- 78
2020-02-01 16:00:00 12.1 23 Noroeste 36 Noroeste 0 -- -- 75
2020-02-01 15:00:00 12.1 23 Noroeste 40 Noroeste 0 -- -- 78
2020-02-01 14:00:00 12.1 29 Noroeste 42 Noroeste 0 -- -- 78
2020-02-01 13:00:00 12.8 24 Noroeste 42 Noroeste 0 -- -- 78
2020-02-01 12:00:00 10.9 19 Noroeste 44 Noroeste 0 -- -- 87
2020-02-01 11:00:00 10.2 23 Noroeste 37 Noroeste 0 -- -- 90
2020-02-01 10:00:00 8.6 22 Oeste 39 Oeste 0 -- -- 96
2020-02-01 09:00:00 8 26 Oeste 39 Noroeste 0 -- -- 98
2020-02-01 08:00:00 7.9 25 Oeste 42 Oeste 0 -- -- 96
2020-02-01 07:00:00 7.8 26 Oeste 37 Oeste 0 -- -- 94
2020-02-01 06:00:00 7.7 27 Oeste 47 Oeste 0 -- -- 95
2020-02-01 05:00:00 7.7 30 Oeste 51 Oeste 0 -- -- 94
2020-02-01 04:00:00 7.3 38 Oeste 52 Oeste 0 -- -- 94
2020-02-01 03:00:00 7.2 30 Oeste 54 Oeste 0 -- -- 92
2020-02-01 02:00:00 7.1 36 Oeste 49 Oeste 0 -- -- 93
2020-02-01 01:00:00 7.1 24 Oeste 48 Oeste 0 -- -- 93
2020-02-01 00:00:00 6.9 24 Oeste 50 Oeste 0 -- -- 94
2020-01-31 23:00:00 6.7 22 Noroeste 36 Oeste 0 -- -- 94
2020-01-31 22:00:00 6.5 14 Oeste 30 Oeste 0 -- -- 94
2020-01-31 21:00:00 6.8 13 Oeste 30 Oeste 0 -- -- 91
2020-01-31 20:00:00 7.1 19 Oeste 33 Oeste 0 -- -- 89
2020-01-31 19:00:00 7.1 17 Oeste 29 Noroeste 0 -- -- 88
2020-01-31 18:00:00 7.9 18 Oeste 31 Noroeste 0 -- -- 85
2020-01-31 17:00:00 9.3 15 Noroeste 34 Noroeste 0 -- -- 79
2020-01-31 16:00:00 10 14 Noroeste 32 Oeste 0 -- -- 78
2020-01-31 15:00:00 10 14 Noroeste 33 Oeste 0 -- -- 78
2020-01-31 14:00:00 10.5 19 Noroeste 36 Oeste 0 -- -- 78
2020-01-31 13:00:00 8.8 23 Noroeste 34 Oeste 0 -- -- 88
2020-01-31 12:00:00 7.8 15 Oeste 29 Oeste 0 -- -- 92
2020-01-31 11:00:00 7.1 15 Oeste 30 Oeste 0 -- -- 96
2020-01-31 10:00:00 6.7 20 Oeste 35 Oeste 0 -- -- 96
2020-01-31 09:00:00 6.1 19 Oeste 33 Oeste 0 -- -- 98
2020-01-31 08:00:00 6.1 18 Oeste 40 Oeste 0 -- -- 98
2020-01-31 07:00:00 5.7 19 Oeste 32 Oeste 0 -- -- 99
2020-01-31 06:00:00 5.5 23 Oeste 39 Oeste 0 -- -- 98
2020-01-31 05:00:00 5.4 21 Oeste 35 Oeste 0 -- -- 98
2020-01-31 04:00:00 5.4 20 Oeste 44 Oeste 0 -- -- 97
2020-01-31 03:00:00 5.5 30 Oeste 48 Oeste 0 -- -- 96
2020-01-31 02:00:00 5.5 24 Oeste 44 Oeste 0 -- -- 96
2020-01-31 01:00:00 5.4 32 Oeste 45 Oeste 0 -- -- 95
2020-01-31 00:00:00 5.6 29 Oeste 45 Oeste 0 -- -- 93
2020-01-30 23:00:00 5.6 28 Oeste 47 Oeste 0 -- -- 92
2020-01-30 22:00:00 5.7 32 Oeste 50 Oeste 0 -- -- 93
2020-01-30 21:00:00 5.8 34 Oeste 55 Oeste 0 -- -- 91
2020-01-30 20:00:00 5.9 34 Oeste 55 Oeste 0 -- -- 91
2020-01-30 19:00:00 6 24 Oeste 48 Oeste 0 -- -- 90
2020-01-30 18:00:00 6.5 26 Oeste 44 Noroeste 0 -- -- 85
2020-01-30 17:00:00 7.7 25 Noroeste 38 Oeste 0 -- -- 80
2020-01-30 16:00:00 8.4 27 Oeste 44 Oeste 0 -- -- 74
2020-01-30 15:00:00 7.8 27 Oeste 54 Oeste 0 -- -- 77
2020-01-30 14:00:00 7 32 Oeste 54 Oeste 0 -- -- 78
2020-01-30 13:00:00 7.1 32 Oeste 57 Oeste 0 -- -- 80
2020-01-30 12:00:00 6.1 28 Oeste 48 Oeste 0 -- -- 84
2020-01-30 11:00:00 5.3 14 Oeste 57 Oeste 0 -- -- 89
2020-01-30 10:00:00 5.3 40 Oeste 58 Oeste 0 -- -- 90
2020-01-30 09:00:00 5.4 40 Oeste 58 Oeste 0 -- -- 92
2020-01-30 08:00:00 5.7 36 Oeste 57 Oeste 0 -- -- 91
2020-01-30 07:00:00 5.9 34 Oeste 53 Oeste 0 -- -- 92
2020-01-30 06:00:00 6.2 35 Oeste 56 Oeste 0 -- -- 93
2020-01-30 05:00:00 6.1 29 Oeste 57 Oeste 0 -- -- 96
2020-01-30 04:00:00 5.9 30 Oeste 51 Oeste 0 -- -- 95
2020-01-30 03:00:00 5.8 30 Oeste 50 Oeste 0 -- -- 95
2020-01-30 02:00:00 5.7 18 Oeste 38 Oeste 0 -- -- 95
2020-01-30 01:00:00 5.7 26 Oeste 38 Oeste 0 -- -- 95
2020-01-30 00:00:00 6 16 Oeste 44 Oeste 0 -- -- 94
2020-01-29 23:00:00 6.3 29 Oeste 42 Oeste 0 -- -- 94
2020-01-29 22:00:00 6.6 26 Oeste 45 Oeste 0 -- -- 92
2020-01-29 21:00:00 6.8 28 Oeste 44 Oeste 0 -- -- 89
2020-01-29 20:00:00 6.8 19 Oeste 33 Oeste 0 -- -- 87
2020-01-29 19:00:00 7.2 19 Oeste 28 Oeste 0 -- -- 84
2020-01-29 18:00:00 7.2 10 Oeste 23 Noroeste 0 -- -- 85
2020-01-29 17:00:00 7.8 18 Noroeste 35 Noroeste 0 -- -- 79
2020-01-29 16:00:00 8.5 21 Noroeste 35 Oeste 0 -- -- 75
2020-01-29 15:00:00 9.6 21 Oeste 37 Noroeste 0 -- -- 74
2020-01-29 14:00:00 8.4 24 Noroeste 45 Oeste 0 -- -- 83
2020-01-29 13:00:00 7.8 22 Noroeste 39 Oeste 0 -- -- 87
2020-01-29 12:00:00 7.4 21 Oeste 30 Oeste 0 -- -- 93
2020-01-29 11:00:00 6.2 14 Oeste 24 Noroeste 0.2 -- -- 99
2020-01-29 10:00:00 6 13 Noroeste 26 Oeste 0 -- -- 100
2020-01-29 09:00:00 5.9 15 Oeste 23 Oeste 0 -- -- 99
2020-01-29 08:00:00 6.2 17 Oeste 36 Oeste 0 -- -- 98
2020-01-29 07:00:00 5.9 19 Oeste 34 Oeste 0 -- -- 100
2020-01-29 06:00:00 5.7 12 Oeste 31 Oeste 0.2 -- -- 99
2020-01-29 05:00:00 6 19 Oeste 30 Oeste 1.2 -- -- 98
2020-01-29 04:00:00 6 12 Oeste 24 Oeste 0 -- -- 98
2020-01-29 03:00:00 5.6 14 Oeste 27 Oeste 0 -- -- 98
2020-01-29 02:00:00 5.8 12 Oeste 28 Oeste 0.2 -- -- 98
2020-01-29 01:00:00 5.8 15 Oeste 25 Oeste 0.2 -- -- 98
2020-01-29 00:00:00 6 14 Oeste 24 Oeste 0.4 -- -- 98
2020-01-28 23:00:00 6.2 14 Oeste 29 Oeste 0.8 -- -- 99
2020-01-28 22:00:00 5.9 10 Oeste 24 Oeste 0.2 -- -- 99
2020-01-28 21:00:00 6.2 11 Oeste 28 Oeste 0.4 -- -- 98
2020-01-28 20:00:00 6.3 17 Oeste 31 Oeste 0 -- -- 96
2020-01-28 19:00:00 6.5 18 Oeste 34 Oeste 0 -- -- 95
2020-01-28 18:00:00 7 21 Oeste 32 Oeste 0 -- -- 91
2020-01-28 17:00:00 7.1 18 Noroeste 43 Oeste 0 -- -- 91
2020-01-28 16:00:00 7.1 27 Oeste 43 Oeste 0 -- -- 88
2020-01-28 15:00:00 7.2 25 Oeste 53 Oeste 0 -- -- 88
2020-01-28 14:00:00 6.8 26 Noroeste 53 Oeste 0 -- -- 88
2020-01-28 13:00:00 6.9 25 Oeste 55 Oeste 0 -- -- 89
2020-01-28 12:00:00 6.3 31 Oeste 52 Oeste 0 -- -- 91
2020-01-28 11:00:00 5.8 36 Oeste 58 Oeste 0 -- -- 93
2020-01-28 10:00:00 5.3 30 Oeste 55 Oeste 0 -- -- 95
2020-01-28 09:00:00 5.1 33 Oeste 53 Oeste 0 -- -- 95
2020-01-28 08:00:00 4.9 30 Oeste 50 Oeste 0 -- -- 96
2020-01-28 07:00:00 4.8 23 Oeste 45 Oeste 0 -- -- 96
2020-01-28 06:00:00 4.6 26 Oeste 46 Oeste 0 -- -- 95
2020-01-28 05:00:00 4.6 30 Oeste 47 Oeste 0 -- -- 94
2020-01-28 04:00:00 4.5 32 Oeste 58 Oeste 0 -- -- 93
2020-01-28 03:00:00 4.2 34 Oeste 60 Oeste 0 -- -- 94
2020-01-28 02:00:00 4 36 Oeste 55 Oeste 0 -- -- 94
2020-01-28 01:00:00 4 34 Oeste 56 Oeste 0 -- -- 94
2020-01-28 00:00:00 3.8 31 Oeste 51 Oeste 0 -- -- 94
2020-01-27 23:00:00 3.6 22 Oeste 47 Oeste 0 -- -- 93
2020-01-27 22:00:00 3.7 22 Oeste 44 Oeste 0 -- -- 92
2020-01-27 21:00:00 3.7 30 Oeste 55 Oeste 0 -- -- 91
2020-01-27 20:00:00 3.6 38 Oeste 73 Oeste 0 -- -- 90
2020-01-27 19:00:00 3.5 45 Oeste 70 Oeste 0 -- -- 89
2020-01-27 18:00:00 3.5 42 Oeste 69 Oeste 0 -- -- 87
2020-01-27 17:00:00 3.3 48 Oeste 66 Oeste 0 -- -- 87
2020-01-27 16:00:00 3.6 28 Oeste 55 Oeste 0 -- -- 83
2020-01-27 15:00:00 3.8 38 Oeste 56 Oeste 0 -- -- 84
2020-01-27 14:00:00 3.3 26 Oeste 59 Oeste 0 -- -- 84
2020-01-27 13:00:00 3.1 46 Oeste 72 Oeste 0 -- -- 84
2020-01-27 12:00:00 1.8 51 Oeste 72 Oeste 0 -- -- 89
2020-01-27 11:00:00 1.4 26 Oeste 50 Oeste 0 -- -- 89
2020-01-27 10:00:00 -0.2 32 Sudoeste 44 Sudoeste 0 -- -- 95
2020-01-27 09:00:00 -0.6 10 Sudoeste 31 Sudoeste 0 -- -- 97
2020-01-27 08:00:00 -0.8 20 Sudoeste 30 Sudoeste 0 -- -- 98
2020-01-27 07:00:00 -0.2 19 Sudoeste 38 Noroeste 0 -- -- 95
2020-01-27 06:00:00 0.9 26 Oeste 41 Oeste 0 -- -- 92
2020-01-27 05:00:00 1.2 25 Oeste 39 Oeste 0 -- -- 89
2020-01-27 04:00:00 1.1 23 Oeste 46 Oeste 0 -- -- 93
2020-01-27 03:00:00 1.1 31 Oeste 48 Oeste 0 -- -- 94
2020-01-27 02:00:00 1.2 21 Oeste 46 Oeste 0 -- -- 94
2020-01-27 01:00:00 1.5 15 Oeste 31 Oeste 0 -- -- 92
2020-01-27 00:00:00 1.7 18 Noroeste 37 Oeste 0 -- -- 89
2020-01-26 23:00:00 2 25 Oeste 38 Oeste 0 -- -- 85
2020-01-26 22:00:00 1 14 Oeste 24 Oeste 0 -- -- 90
2020-01-26 21:00:00 2.1 14 Oeste 24 Oeste 0 -- -- 84
2020-01-26 20:00:00 2.6 17 Oeste 30 Noroeste 0 -- -- 79
2020-01-26 19:00:00 2.6 18 Oeste 29 Oeste 0 -- -- 75
2020-01-26 18:00:00 3 17 Oeste 29 Oeste 0 -- -- 76
2020-01-26 17:00:00 3.8 21 Oeste 30 Oeste 0 -- -- 77
2020-01-26 16:00:00 3.7 14 Oeste 26 Noroeste 0 -- -- 80
2020-01-26 15:00:00 3.1 22 Noroeste 30 Noroeste 0 -- -- 83
2020-01-26 14:00:00 2.6 18 Noroeste 30 Noroeste 0 -- -- 88
2020-01-26 13:00:00 3.1 22 Noroeste 33 Noroeste 0 -- -- 86
2020-01-26 12:00:00 3.5 20 Noroeste 38 Noroeste 0 -- -- 84
2020-01-26 11:00:00 3.3 26 Noroeste 46 Noroeste 0 -- -- 88
2020-01-26 10:00:00 2.7 29 Noroeste 41 Noroeste 0 -- -- 94
2020-01-26 09:00:00 2 23 Noroeste 35 Noroeste 0 -- -- 98
2020-01-26 08:00:00 2.1 18 Noroeste 27 Noroeste 0 -- -- 97
2020-01-26 07:00:00 2.1 14 Oeste 28 Oeste 0 -- -- 99
2020-01-26 06:00:00 1.9 11 Oeste 20 Oeste 0 -- -- 100
2020-01-26 05:00:00 1.9 12 Oeste 23 Sudoeste 0.2 -- -- 99
2020-01-26 04:00:00 2.3 10 Oeste 21 Sudoeste 0 -- -- 99
2020-01-26 03:00:00 2.1 14 Oeste 24 Oeste 0 -- -- 99
2020-01-26 02:00:00 2.1 15 Oeste 27 Oeste 0 -- -- 99
2020-01-26 01:00:00 2.4 14 Oeste 22 Oeste 0.2 -- -- 98
2020-01-26 00:00:00 2.1 11 Sudoeste 23 Sudoeste 0 -- -- 97
2020-01-25 23:00:00 2.5 15 Sudoeste 21 Sudoeste 0 -- -- 96
2020-01-25 22:00:00 2.9 13 Sur 23 Sur 0.2 -- -- 96
2020-01-25 21:00:00 3 9 Sur 16 Sudoeste 0.2 -- -- 96
2020-01-25 20:00:00 2.1 6 Sur 9 Sudeste 0 -- -- 97
2020-01-25 19:00:00 2.5 6 Sur 15 Sudeste 0.6 -- -- 97
2020-01-25 18:00:00 2.3 4 Sudeste 13 Sudeste 0.2 -- -- 96
2020-01-25 17:00:00 3.4 0 Calma 17 Sudoeste 0.4 -- -- 93
2020-01-25 16:00:00 3.2 13 Sur 30 Sur 0.8 -- -- 91
2020-01-25 15:00:00 4.7 14 Sudoeste 29 Sur 0 -- -- 85
2020-01-25 14:00:00 4.6 21 Sudoeste 30 Sur 0 -- -- 84
2020-01-25 13:00:00 3.8 21 Sudoeste 32 Sudoeste 0 -- -- 91
2020-01-25 12:00:00 3.9 15 Sudoeste 24 Sudoeste 0 -- -- 89
2020-01-25 11:00:00 3.5 13 Sur 23 Sur 0.2 -- -- 90
2020-01-25 10:00:00 2.6 10 Sur 27 Sudoeste 1.2 -- -- 93
2020-01-25 09:00:00 2.4 20 Sudoeste 29 Sudoeste 0 -- -- 94
2020-01-25 08:00:00 2.3 24 Sudoeste 27 Sudoeste 0 -- -- 92
2020-01-25 07:00:00 2.3 21 Sudoeste 27 Sudoeste 0 -- -- 92
2020-01-25 06:00:00 2.7 18 Sudoeste 24 Sudoeste 0 -- -- 93
2020-01-25 05:00:00 2.1 21 Sudoeste 27 Sudoeste 0 -- -- 93
2020-01-25 04:00:00 2.7 20 Sudoeste 24 Sudoeste 0 -- -- 94
2020-01-25 03:00:00 2.3 13 Sudoeste 17 Sudoeste 0 -- -- 93
2020-01-25 02:00:00 2.1 13 Sudoeste 14 Sudoeste 0 -- -- 94
2020-01-25 01:00:00 2.4 11 Sudoeste 13 Sudoeste 0 -- -- 93
2020-01-25 00:00:00 2.3 11 Sudoeste 14 Sudoeste 0 -- -- 93
2020-01-24 23:00:00 2.2 10 Sudoeste 12 Sudoeste 0 -- -- 94
2020-01-24 22:00:00 2.2 9 Sudoeste 11 Sudoeste 0 -- -- 94
2020-01-24 21:00:00 2.2 7 Sudoeste 14 Sudoeste 0 -- -- 93
2020-01-24 20:00:00 2.4 10 Sudoeste 18 Sudoeste 0 -- -- 93
2020-01-24 19:00:00 2.7 12 Sudoeste 24 Sudoeste 0 -- -- 92
2020-01-24 18:00:00 3 14 Sudoeste 25 Sudoeste 0 -- -- 91
2020-01-24 17:00:00 3.1 18 Sudoeste 26 Sudoeste 0 -- -- 89
2020-01-24 16:00:00 3.7 17 Sudoeste 30 Sudoeste 0 -- -- 84
2020-01-24 15:00:00 4 21 Sudoeste 39 Sudoeste 0 -- -- 83
2020-01-24 14:00:00 3.9 31 Sudoeste 38 Sudoeste 0 -- -- 82
2020-01-24 13:00:00 3.5 27 Sudoeste 36 Sudoeste 0 -- -- 83
2020-01-24 12:00:00 3.4 26 Sudoeste 39 Sudoeste 0 -- -- 85
2020-01-24 11:00:00 2.9 27 Sudoeste 38 Sudoeste 0 -- -- 86
2020-01-24 10:00:00 2 29 Sudoeste 38 Sudoeste 0 -- -- 93
2020-01-24 09:00:00 1.7 30 Sudoeste 35 Sudoeste 0 -- -- 94
2020-01-24 08:00:00 1.2 30 Sudoeste 33 Sudoeste 0 -- -- 94
2020-01-24 07:00:00 1.1 27 Sudoeste 31 Sudoeste 0 -- -- 93
2020-01-24 06:00:00 1.3 25 Sudoeste 39 Sudoeste 0 -- -- 93
2020-01-24 05:00:00 1.7 31 Sudoeste 40 Sudoeste 0 -- -- 95
2020-01-24 04:00:00 1.8 27 Sudoeste 35 Sur 0 -- -- 94
2020-01-24 03:00:00 2.3 23 Sudoeste 36 Sudoeste 0 -- -- 91
2020-01-24 02:00:00 2.4 18 Sur 24 Sur 0 -- -- 93
2020-01-24 01:00:00 1.5 10 Sur 18 Sudoeste 0 -- -- 94
2020-01-24 00:00:00 1.5 10 Sudoeste 12 Sudoeste 0 -- -- 94
2020-01-23 23:00:00 1 2 Norte 6 Sudoeste 0 -- -- 96
2020-01-23 22:00:00 1.2 0 Calma 12 Sudeste 0 -- -- 96
2020-01-23 21:00:00 2.2 4 Sur 13 Sudeste 0 -- -- 91
2020-01-23 20:00:00 1.9 8 Sudeste 21 Sur 0 -- -- 93
2020-01-23 19:00:00 2.4 10 Sur 22 Sur 0 -- -- 90
2020-01-23 18:00:00 2.4 18 Sur 32 Sur 0 -- -- 89
2020-01-23 17:00:00 3.1 23 Sur 36 Sur 0 -- -- 82
2020-01-23 16:00:00 3.6 18 Sur 31 Sudoeste 0 -- -- 84
2020-01-23 15:00:00 4.3 17 Sur 28 Sudoeste 0 -- -- 80
2020-01-23 14:00:00 4.3 15 Sudoeste 22 Sudoeste 0 -- -- 78
2020-01-23 13:00:00 4.2 12 Sudoeste 28 Sudoeste 0 -- -- 81
2020-01-23 12:00:00 3.3 19 Sudoeste 27 Sudoeste 0 -- -- 91
2020-01-23 11:00:00 2.7 22 Sudoeste 26 Sudoeste 0.2 -- -- 97
2020-01-23 10:00:00 1.2 6 Sudoeste 18 Sudoeste 0 -- -- 100
2020-01-23 09:00:00 0.1 8 Sur 28 Sudoeste 0 -- -- 100
2020-01-23 08:00:00 0 22 Sudoeste 33 Sudoeste 0 -- -- 100
2020-01-23 07:00:00 0 23 Sudoeste 31 Sudoeste 0 -- -- 100
2020-01-23 06:00:00 0.4 15 Sudoeste 19 Sudoeste 0 -- -- 100
2020-01-23 05:00:00 0.7 3 Sur 6 Sudeste 0 -- -- 100
2020-01-23 04:00:00 0.7 2 Sur 4 Sudeste 0 -- -- 100
2020-01-23 03:00:00 0.7 0 Calma 3 Sudeste -- -- -- 100
2020-01-23 02:00:00 0.8 0 Calma 4 Sudeste -- -- -- 100
2020-01-23 01:00:00 1 0 Calma 8 Este -- -- -- 100
2020-01-23 00:00:00 1 4 Sudeste 12 Sudeste -- -- -- 100
2020-01-22 23:00:00 0.8 2 Noroeste 12 Noroeste -- -- -- 100
2020-01-22 22:00:00 1.1 3 Norte 6 Noroeste -- -- -- 100
2020-01-22 21:00:00 1.1 0 Calma 4 Este -- -- -- 100
2020-01-22 20:00:00 1 4 Sudoeste 8 Este -- -- -- 100
2020-01-22 19:00:00 1.3 4 Este 12 Sudeste -- -- -- 100
2020-01-22 18:00:00 1.4 4 Sur 15 Sudeste -- -- -- 100
2020-01-22 17:00:00 1.4 3 Sudeste 8 Sudeste -- -- -- 98
2020-01-22 16:00:00 1.9 5 Sudeste 13 Sudeste -- -- -- 99
2020-01-22 15:00:00 1.9 4 Sudeste 10 Sudeste -- -- -- 98
2020-01-22 14:00:00 1.9 4 Sudeste 9 Sudeste -- -- -- 97
2020-01-22 13:00:00 2.6 2 Sur 9 Sudeste -- -- -- 95
2020-01-22 12:00:00 1.6 4 Sudeste 11 Sudeste -- -- -- 99
2020-01-22 11:00:00 1.4 2 Sudeste 5 Sudeste -- -- -- 99
2020-01-22 10:00:00 1.1 2 Sudeste 5 Sudeste -- -- -- 100
2020-01-22 09:00:00 0.5 4 Sudeste 15 Este -- -- -- 100
2020-01-22 08:00:00 0.3 6 Nordeste 10 Nordeste -- -- -- 100
2020-01-22 07:00:00 0.2 2 Nordeste 4 Nordeste -- -- -- 100
2020-01-22 06:00:00 0.2 2 Nordeste 3 Nordeste -- -- -- 100
2020-01-22 05:00:00 0.1 3 Nordeste 6 Nordeste -- -- -- 100
2020-01-22 04:00:00 0.1 4 Nordeste 9 Nordeste -- -- -- 100
2020-01-22 03:00:00 0.1 3 Nordeste 6 Nordeste -- -- -- 100
2020-01-22 02:00:00 -0.1 4 Nordeste 6 Nordeste -- -- -- 100
2020-01-22 01:00:00 -0.2 0 Calma 4 Nordeste -- -- -- 100
2020-01-22 00:00:00 0 0 Calma 4 Nordeste -- -- -- 100